Time;durP1;ratioP1;P1;durP2;ratioP2;P2;SDS_P1;SDS_P2;PMS_P1;PMS_P2;Temp;Humidity;BMP_temperature;BMP_pressure;BME280_temperature;BME280_humidity;BME280_pressure;Samples;Min_cycle;Max_cycle;Signal;HPM_P1;HPM_P2
2023/03/05 00:00:06;;;;;;;26.02;12.15;;;1.60;99.90;;;;;;5037586;28;20079;-78
2023/03/05 00:02:39;;;;;;;29.48;12.48;;;1.70;99.90;;;;;;5045841;28;20033;-77
2023/03/05 00:05:05;;;;;;;25.77;11.15;;;1.60;99.90;;;;;;5030632;28;20161;-78
2023/03/05 00:07:32;;;;;;;23.58;10.90;;;1.60;99.90;;;;;;5050971;28;20033;-79
2023/03/05 00:09:59;;;;;;;29.45;11.52;;;1.60;99.90;;;;;;5048594;28;20076;-78
2023/03/05 00:12:25;;;;;;;24.52;11.27;;;1.60;99.90;;;;;;5051900;28;20033;-77
2023/03/05 00:14:51;;;;;;;23.60;11.57;;;1.60;99.90;;;;;;5050446;28;20029;-78
2023/03/05 00:17:17;;;;;;;28.30;11.63;;;1.50;99.90;;;;;;5032936;28;20037;-78
2023/03/05 00:19:43;;;;;;;25.95;10.88;;;1.60;99.90;;;;;;5031833;28;20048;-78
2023/03/05 00:22:08;;;;;;;23.60;11.02;;;1.60;99.90;;;;;;5056583;28;20036;-78
2023/03/05 00:24:34;;;;;;;26.13;11.15;;;1.60;99.90;;;;;;5050607;28;20029;-78
2023/03/05 00:27:00;;;;;;;25.35;11.23;;;1.60;99.90;;;;;;5012631;28;20406;-79
2023/03/05 00:29:26;;;;;;;21.77;10.52;;;1.60;99.90;;;;;;5050753;28;20032;-79
2023/03/05 00:31:52;;;;;;;22.25;10.48;;;1.60;99.90;;;;;;5036140;28;20028;-79
2023/03/05 00:34:19;;;;;;;23.08;10.40;;;1.50;99.90;;;;;;5036879;28;20060;-79
2023/03/05 00:36:51;;;;;;;23.45;11.80;;;1.50;99.90;;;;;;4996134;23;20047;-80
2023/03/05 00:39:19;;;;;;;25.80;10.52;;;1.50;99.90;;;;;;4983603;28;20442;-79
2023/03/05 00:41:45;;;;;;;26.05;11.27;;;1.50;99.90;;;;;;4989378;28;20045;-79
2023/03/05 00:44:11;;;;;;;25.00;10.27;;;1.50;99.90;;;;;;4994192;28;20050;-79
2023/03/05 00:46:37;;;;;;;24.58;9.15;;;1.50;99.90;;;;;;4965651;28;20026;-80
2023/03/05 00:49:04;;;;;;;19.85;10.35;;;1.50;99.90;;;;;;4960883;28;20031;-79
2023/03/05 00:51:29;;;;;;;21.83;9.75;;;1.50;99.90;;;;;;4970364;28;20539;-79
2023/03/05 00:53:55;;;;;;;20.45;10.43;;;1.50;99.90;;;;;;4962418;28;20134;-79
2023/03/05 00:56:22;;;;;;;21.08;10.73;;;1.50;99.90;;;;;;4986199;28;20050;-79
2023/03/05 00:58:48;;;;;;;21.60;10.05;;;1.50;99.90;;;;;;4952555;28;20126;-80
2023/03/05 01:01:14;;;;;;;21.50;9.60;;;1.50;99.90;;;;;;4986151;28;20027;-79
2023/03/05 01:03:40;;;;;;;20.60;8.88;;;1.50;99.90;;;;;;4965107;28;20042;-79
2023/03/05 01:06:09;;;;;;;17.50;8.38;;;1.50;99.90;;;;;;4985848;28;20434;-79
2023/03/05 01:08:36;;;;;;;16.85;7.88;;;1.50;99.90;;;;;;4982774;28;20035;-79
2023/03/05 01:11:02;;;;;;;15.18;7.20;;;1.50;99.90;;;;;;4970444;28;20031;-79
2023/03/05 01:13:28;;;;;;;19.65;8.27;;;1.50;99.90;;;;;;4965368;28;20035;-79
2023/03/05 01:15:54;;;;;;;16.77;8.75;;;1.60;99.90;;;;;;4983482;28;20035;-79
2023/03/05 01:18:21;;;;;;;17.50;7.40;;;1.50;99.90;;;;;;4958574;28;20039;-79
2023/03/05 01:20:47;;;;;;;14.38;7.50;;;1.50;99.90;;;;;;4970145;28;20479;-79
2023/03/05 01:23:13;;;;;;;17.02;7.32;;;1.50;99.90;;;;;;4968692;28;20030;-78
2023/03/05 01:25:39;;;;;;;13.60;6.72;;;1.50;99.90;;;;;;4985784;28;20027;-79
2023/03/05 01:28:05;;;;;;;19.25;6.95;;;1.50;99.90;;;;;;4975378;28;20054;-79
2023/03/05 01:30:31;;;;;;;14.02;6.47;;;1.50;99.90;;;;;;4965447;28;20655;-79
2023/03/05 01:32:57;;;;;;;14.65;6.75;;;1.50;99.90;;;;;;4965966;28;20733;-81
2023/03/05 01:35:25;;;;;;;14.77;6.18;;;1.50;99.90;;;;;;4968315;28;20030;-79
2023/03/05 01:37:52;;;;;;;11.70;6.03;;;1.50;99.90;;;;;;4961995;28;20031;-79
2023/03/05 01:40:24;;;;;;;15.75;6.57;;;1.50;99.90;;;;;;4952578;28;20388;-80
2023/03/05 01:43:00;;;;;;;13.07;6.47;;;1.50;99.90;;;;;;4970105;28;20039;-79
2023/03/05 01:45:31;;;;;;;9.88;5.07;;;1.50;99.90;;;;;;4984947;28;20412;-79
2023/03/05 01:47:57;;;;;;;11.13;5.50;;;1.50;99.90;;;;;;4979763;28;20047;-79
2023/03/05 01:50:25;;;;;;;11.63;4.95;;;1.50;99.90;;;;;;4962102;28;20042;-79
2023/03/05 01:52:59;;;;;;;9.77;4.55;;;1.40;99.90;;;;;;4944617;28;20058;-79
2023/03/05 01:55:28;;;;;;;10.40;4.30;;;1.40;99.90;;;;;;4965725;28;20033;-79
2023/03/05 01:58:02;;;;;;;7.97;4.13;;;1.40;99.90;;;;;;4949080;28;20105;-79
2023/03/05 02:00:38;;;;;;;8.55;4.18;;;1.40;99.90;;;;;;4981324;28;20129;-80
2023/03/05 02:03:07;;;;;;;10.40;4.05;;;1.40;99.90;;;;;;4967605;28;20038;-79
2023/03/05 02:05:35;;;;;;;7.55;4.00;;;1.40;99.90;;;;;;4957694;28;20039;-79
2023/03/05 02:08:04;;;;;;;8.73;3.67;;;1.40;99.90;;;;;;4959174;28;20030;-79
2023/03/05 02:10:37;;;;;;;8.60;3.72;;;1.40;99.90;;;;;;4968008;28;20117;-79
2023/03/05 02:13:07;;;;;;;6.20;2.78;;;1.30;99.90;;;;;;4966776;28;20081;-80
2023/03/05 02:15:33;;;;;;;10.13;3.10;;;1.30;99.90;;;;;;4960243;28;20129;-79
2023/03/05 02:18:02;;;;;;;5.60;2.53;;;1.30;99.90;;;;;;4967554;28;20027;-79
2023/03/05 02:20:41;;;;;;;8.77;2.13;;;1.30;99.90;;;;;;4967562;28;20041;-80
2023/03/05 02:23:06;;;;;;;6.93;3.25;;;1.30;99.90;;;;;;4969097;28;20034;-79
2023/03/05 02:25:32;;;;;;;5.95;2.45;;;1.20;99.90;;;;;;4989678;28;20019;-79
2023/03/05 02:28:05;;;;;;;6.68;2.20;;;1.20;99.90;;;;;;4950335;28;20122;-79
2023/03/05 02:30:31;;;;;;;4.88;2.30;;;1.20;99.90;;;;;;4988015;28;20026;-79
2023/03/05 02:32:58;;;;;;;4.35;2.00;;;1.20;99.90;;;;;;4975974;28;20026;-79
2023/03/05 02:35:24;;;;;;;3.33;1.80;;;1.10;99.90;;;;;;4971849;28;20031;-79
2023/03/05 02:37:50;;;;;;;3.75;1.63;;;1.10;99.90;;;;;;4962714;28;20386;-79
2023/03/05 02:40:16;;;;;;;4.38;1.58;;;1.10;99.90;;;;;;4952648;28;20073;-80
2023/03/05 02:42:43;;;;;;;4.20;1.77;;;1.20;99.90;;;;;;4954728;28;20069;-79
2023/03/05 02:45:11;;;;;;;4.75;1.80;;;1.10;99.90;;;;;;4982600;28;20046;-79
2023/03/05 02:47:37;;;;;;;3.72;1.45;;;1.10;99.90;;;;;;4968286;28;20640;-78
2023/03/05 02:50:05;;;;;;;3.78;1.10;;;1.20;99.90;;;;;;4964008;28;20506;-78
2023/03/05 02:52:31;;;;;;;2.90;1.30;;;1.10;99.90;;;;;;4986601;28;20040;-79
2023/03/05 02:54:56;;;;;;;4.53;2.45;;;1.10;99.90;;;;;;4978500;28;20041;-80
2023/03/05 02:57:23;;;;;;;3.03;1.17;;;1.10;99.90;;;;;;4972464;28;20034;-78
2023/03/05 02:59:48;;;;;;;6.18;1.52;;;1.10;99.90;;;;;;4966899;28;20503;-79
2023/03/05 03:02:15;;;;;;;5.03;1.23;;;1.10;99.90;;;;;;4970677;28;20027;-79
2023/03/05 03:04:42;;;;;;;2.67;1.05;;;1.10;99.90;;;;;;4968862;28;20035;-79
2023/03/05 03:07:13;;;;;;;3.83;1.20;;;1.10;99.90;;;;;;4966118;28;20035;-79
2023/03/05 03:09:39;;;;;;;4.95;1.30;;;1.10;99.90;;;;;;4960938;28;20035;-79
2023/03/05 03:12:05;;;;;;;4.05;1.10;;;1.10;99.90;;;;;;4983721;28;20031;-79
2023/03/05 03:14:38;;;;;;;4.65;1.27;;;1.00;99.90;;;;;;4986484;28;20126;-79
2023/03/05 03:17:12;;;;;;;4.72;1.05;;;1.00;99.90;;;;;;4974041;28;20110;-79
2023/03/05 03:19:39;;;;;;;3.78;0.90;;;1.10;99.90;;;;;;4958752;28;20031;-80
2023/03/05 03:22:06;;;;;;;2.70;0.82;;;1.10;99.90;;;;;;4971137;28;20033;-79
2023/03/05 03:24:33;;;;;;;3.53;1.00;;;1.10;99.90;;;;;;4969144;28;20039;-79
2023/03/05 03:26:59;;;;;;;5.07;1.08;;;1.00;99.90;;;;;;4985302;28;20027;-79
2023/03/05 03:29:25;;;;;;;3.40;0.90;;;1.00;99.90;;;;;;4962268;28;20510;-79
2023/03/05 03:31:51;;;;;;;2.85;0.85;;;1.00;99.90;;;;;;4954966;28;20030;-79
2023/03/05 03:34:18;;;;;;;2.85;1.00;;;1.00;99.90;;;;;;4968040;28;20126;-78
2023/03/05 03:36:44;;;;;;;2.55;0.98;;;1.00;99.90;;;;;;4987288;28;20141;-78
2023/03/05 03:39:10;;;;;;;2.05;0.93;;;1.00;99.90;;;;;;4964980;28;20030;-79
2023/03/05 03:41:40;;;;;;;3.90;1.10;;;1.00;99.90;;;;;;4969420;28;20118;-79
2023/03/05 03:44:07;;;;;;;4.45;1.08;;;1.00;99.90;;;;;;4985373;28;20047;-79
2023/03/05 03:46:33;;;;;;;2.00;0.80;;;1.00;99.90;;;;;;4967473;28;20496;-78
2023/03/05 03:49:00;;;;;;;3.22;0.70;;;1.00;99.90;;;;;;4971977;28;20035;-78
2023/03/05 03:51:26;;;;;;;3.15;0.70;;;1.00;99.90;;;;;;4964410;28;20026;-78
2023/03/05 03:53:52;;;;;;;2.47;0.68;;;1.00;99.90;;;;;;4968886;28;20030;-78
2023/03/05 03:56:17;;;;;;;2.13;0.90;;;1.00;99.90;;;;;;4956802;28;20031;-79
2023/03/05 03:58:43;;;;;;;1.70;0.80;;;1.00;99.90;;;;;;4950415;28;20414;-79
2023/03/05 04:01:09;;;;;;;3.45;0.88;;;1.00;99.90;;;;;;4987233;28;20119;-79
2023/03/05 04:03:35;;;;;;;5.97;0.95;;;1.00;99.90;;;;;;4952620;28;20072;-79
2023/03/05 04:06:01;;;;;;;1.98;1.10;;;1.00;99.90;;;;;;4968652;28;20652;-78
2023/03/05 04:08:27;;;;;;;2.15;0.70;;;1.00;99.90;;;;;;4965559;28;20066;-78
2023/03/05 04:10:53;;;;;;;2.38;0.80;;;1.00;99.90;;;;;;4980287;28;20117;-79
2023/03/05 04:13:18;;;;;;;2.90;0.90;;;1.00;99.90;;;;;;4960954;28;20043;-79
2023/03/05 04:15:44;;;;;;;1.88;0.70;;;1.00;99.90;;;;;;4986605;28;20038;-78
2023/03/05 04:18:10;;;;;;;3.78;0.90;;;1.00;99.90;;;;;;4971538;28;20066;-79
2023/03/05 04:20:36;;;;;;;3.60;1.60;;;1.00;99.90;;;;;;4965478;28;20074;-78
2023/03/05 04:23:02;;;;;;;4.75;0.90;;;1.00;99.90;;;;;;4971926;28;20110;-79
2023/03/05 04:25:28;;;;;;;3.63;0.88;;;1.00;99.90;;;;;;4948963;28;20062;-78
2023/03/05 04:27:54;;;;;;;7.38;1.02;;;1.00;99.90;;;;;;4974984;28;20106;-79
2023/03/05 04:30:20;;;;;;;3.92;1.13;;;1.00;99.90;;;;;;4984539;28;20114;-78
2023/03/05 04:32:46;;;;;;;4.93;1.23;;;1.00;99.90;;;;;;4983894;28;20027;-78
2023/03/05 04:35:11;;;;;;;2.20;0.90;;;1.00;99.90;;;;;;4984380;28;20046;-78
2023/03/05 04:37:37;;;;;;;4.18;0.98;;;1.00;99.90;;;;;;4950112;28;20062;-78
2023/03/05 04:40:04;;;;;;;2.13;1.00;;;1.00;99.90;;;;;;4968589;28;20031;-78
2023/03/05 04:42:30;;;;;;;2.45;0.80;;;1.00;99.90;;;;;;4962547;28;20019;-79
2023/03/05 04:44:56;;;;;;;4.65;1.25;;;1.00;99.90;;;;;;4971012;28;20507;-78
2023/03/05 04:47:22;;;;;;;6.82;1.27;;;1.00;99.90;;;;;;4986680;28;20039;-78
2023/03/05 04:49:47;;;;;;;2.42;0.77;;;1.00;99.90;;;;;;4970853;28;20031;-79
2023/03/05 04:52:14;;;;;;;4.88;1.23;;;1.00;99.90;;;;;;4984430;28;20031;-79
2023/03/05 04:54:40;;;;;;;1.60;0.80;;;1.00;99.90;;;;;;4961496;28;20121;-79
2023/03/05 04:57:06;;;;;;;2.35;0.93;;;1.00;99.90;;;;;;4978609;28;20106;-79
2023/03/05 04:59:32;;;;;;;6.28;1.20;;;0.90;99.90;;;;;;4963523;28;20074;-78
2023/03/05 05:01:57;;;;;;;1.33;0.88;;;0.90;99.90;;;;;;4963449;28;20032;-79
2023/03/05 05:04:23;;;;;;;1.92;1.00;;;0.90;99.90;;;;;;4960394;28;20377;-79
2023/03/05 05:06:49;;;;;;;2.17;0.90;;;0.90;99.90;;;;;;4968328;28;20084;-79
2023/03/05 05:09:15;;;;;;;2.17;1.48;;;0.90;99.90;;;;;;4970201;28;20439;-79
2023/03/05 05:11:41;;;;;;;4.38;1.13;;;0.90;99.90;;;;;;4969282;28;20049;-78
2023/03/05 05:14:06;;;;;;;3.85;0.90;;;0.90;99.90;;;;;;4962740;28;20118;-78
2023/03/05 05:16:32;;;;;;;4.78;1.30;;;0.90;99.90;;;;;;4949903;28;20049;-78
2023/03/05 05:18:58;;;;;;;3.17;0.80;;;1.00;99.90;;;;;;4931815;28;20039;-79
2023/03/05 05:21:24;;;;;;;5.43;0.90;;;1.00;99.90;;;;;;4960399;28;20126;-79
2023/03/05 05:23:50;;;;;;;1.15;0.65;;;1.00;99.90;;;;;;4967311;28;20039;-78
2023/03/05 05:26:15;;;;;;;1.63;0.70;;;1.00;99.90;;;;;;4980173;28;20027;-78
2023/03/05 05:28:42;;;;;;;3.85;0.98;;;1.00;99.90;;;;;;4985187;28;20065;-79
2023/03/05 05:31:11;;;;;;;4.88;1.05;;;1.00;99.90;;;;;;4969456;28;20030;-79
2023/03/05 05:33:37;;;;;;;3.08;0.90;;;0.90;99.90;;;;;;4967583;28;20078;-79
2023/03/05 05:36:05;;;;;;;2.28;0.90;;;1.00;99.90;;;;;;4966777;28;20129;-78
2023/03/05 05:38:31;;;;;;;3.50;0.70;;;0.90;99.90;;;;;;4967915;28;20105;-79
2023/03/05 05:41:11;;;;;;;2.35;0.80;;;0.90;99.90;;;;;;4969130;28;20114;-79
2023/03/05 05:43:38;;;;;;;4.90;0.68;;;0.90;99.90;;;;;;4949280;28;20036;-79
2023/03/05 05:46:07;;;;;;;3.63;0.90;;;0.90;99.90;;;;;;4961614;28;20255;-79
2023/03/05 05:48:34;;;;;;;3.53;0.98;;;0.90;99.90;;;;;;4967997;28;20103;-78
2023/03/05 05:51:05;;;;;;;1.35;0.80;;;1.00;99.90;;;;;;4985716;28;20050;-79
2023/03/05 05:53:31;;;;;;;1.35;0.73;;;0.90;99.90;;;;;;4963336;28;20035;-80
2023/03/05 05:55:56;;;;;;;3.25;0.85;;;0.90;99.90;;;;;;4953483;28;20110;-79
2023/03/05 05:58:22;;;;;;;1.77;0.57;;;0.90;99.90;;;;;;4957260;28;20392;-78
2023/03/05 06:00:48;;;;;;;1.45;0.88;;;0.90;99.90;;;;;;4972446;28;20158;-80
2023/03/05 06:03:14;;;;;;;2.17;0.85;;;0.90;99.90;;;;;;4957443;28;20027;-79
2023/03/05 06:05:41;;;;;;;1.83;0.98;;;0.90;99.90;;;;;;4969358;28;20031;-79
2023/03/05 06:08:07;;;;;;;0.77;0.70;;;0.90;99.90;;;;;;4987762;28;20387;-79
2023/03/05 06:10:33;;;;;;;0.70;0.60;;;0.90;99.90;;;;;;4972815;28;20489;-79
2023/03/05 06:12:59;;;;;;;6.03;0.77;;;0.90;99.90;;;;;;4972894;28;20030;-80
2023/03/05 06:15:25;;;;;;;2.13;0.82;;;1.00;99.90;;;;;;4989276;28;20100;-80
2023/03/05 06:17:51;;;;;;;2.42;0.60;;;1.00;99.90;;;;;;4950115;28;20037;-79
2023/03/05 06:20:17;;;;;;;2.88;1.02;;;1.00;99.90;;;;;;4973124;28;20038;-78
2023/03/05 06:22:43;;;;;;;1.35;0.98;;;1.00;99.90;;;;;;4967931;28;20067;-78
2023/03/05 06:25:11;;;;;;;2.15;0.80;;;1.00;99.90;;;;;;4968964;28;20047;-79
2023/03/05 06:27:37;;;;;;;2.78;0.80;;;1.00;99.90;;;;;;4961027;28;20035;-78
2023/03/05 06:30:04;;;;;;;1.98;0.90;;;1.00;99.90;;;;;;4988548;28;20035;-79
2023/03/05 06:32:31;;;;;;;3.35;0.68;;;1.00;99.90;;;;;;4969404;28;20058;-78
2023/03/05 06:34:56;;;;;;;1.35;0.70;;;1.00;99.90;;;;;;4987475;28;20035;-78
2023/03/05 06:37:22;;;;;;;1.25;0.57;;;1.00;99.90;;;;;;4974198;28;20097;-80
2023/03/05 06:39:48;;;;;;;1.00;0.40;;;1.00;99.90;;;;;;4954337;28;20049;-81
2023/03/05 06:42:16;;;;;;;1.83;0.60;;;1.00;99.90;;;;;;4949524;28;20034;-80
2023/03/05 06:44:42;;;;;;;1.85;0.50;;;1.00;99.90;;;;;;4989870;28;20035;-81
2023/03/05 06:47:11;;;;;;;1.80;0.43;;;1.00;99.90;;;;;;4991290;28;20043;-78
2023/03/05 06:49:38;;;;;;;2.22;0.73;;;1.00;99.90;;;;;;4995184;28;20038;-78
2023/03/05 06:52:05;;;;;;;4.75;0.68;;;1.10;99.90;;;;;;4979536;28;20030;-79
2023/03/05 06:54:31;;;;;;;2.08;0.70;;;1.10;99.90;;;;;;4984554;28;20034;-79
2023/03/05 06:56:57;;;;;;;4.43;0.85;;;1.10;99.90;;;;;;4970014;28;20063;-79
2023/03/05 06:59:23;;;;;;;1.20;0.70;;;1.10;99.90;;;;;;4992570;28;20038;-78
2023/03/05 07:01:49;;;;;;;1.92;0.50;;;1.10;99.90;;;;;;4978494;28;20089;-81
2023/03/05 07:04:16;;;;;;;2.47;0.60;;;1.20;99.90;;;;;;4981321;28;20045;-82
2023/03/05 07:06:42;;;;;;;2.17;0.75;;;1.20;99.90;;;;;;4975529;28;20046;-79
2023/03/05 07:09:12;;;;;;;2.15;0.82;;;1.20;99.90;;;;;;4958443;28;20134;-80
2023/03/05 07:11:38;;;;;;;1.42;0.63;;;1.30;99.90;;;;;;4975515;28;20027;-80
2023/03/05 07:14:04;;;;;;;1.50;0.82;;;1.30;99.90;;;;;;4973110;28;20510;-79
2023/03/05 07:16:32;;;;;;;4.15;0.77;;;1.40;99.90;;;;;;4975136;28;20038;-82
2023/03/05 07:18:59;;;;;;;1.33;0.55;;;1.50;99.90;;;;;;4971904;28;20088;-79
2023/03/05 07:21:27;;;;;;;2.10;1.05;;;1.50;99.90;;;;;;4975701;28;20037;-79
2023/03/05 07:23:54;;;;;;;3.10;0.80;;;1.50;99.90;;;;;;4972298;28;20031;-80
2023/03/05 07:26:22;;;;;;;1.98;1.00;;;1.50;99.90;;;;;;4980064;28;20058;-78
2023/03/05 07:28:48;;;;;;;0.80;0.73;;;1.60;99.90;;;;;;4970114;28;20038;-79
2023/03/05 07:31:18;;;;;;;4.18;0.70;;;1.60;99.90;;;;;;4954128;28;20034;-79
2023/03/05 07:33:45;;;;;;;2.08;1.00;;;1.60;99.90;;;;;;4984420;23;20050;-78
2023/03/05 07:36:12;;;;;;;1.83;0.70;;;1.70;99.90;;;;;;4994253;28;20510;-78
2023/03/05 07:38:38;;;;;;;2.35;0.80;;;1.70;99.90;;;;;;4989703;28;20529;-78
2023/03/05 07:41:09;;;;;;;2.78;0.93;;;1.70;99.90;;;;;;4989054;28;20119;-77
2023/03/05 07:43:35;;;;;;;3.65;1.85;;;1.70;99.90;;;;;;4992064;28;20035;-78
2023/03/05 07:46:06;;;;;;;2.67;1.00;;;1.70;99.90;;;;;;4971218;28;20052;-78
2023/03/05 07:48:32;;;;;;;3.15;0.80;;;1.70;99.90;;;;;;4967772;28;20035;-77
2023/03/05 07:51:14;;;;;;;3.00;1.05;;;1.80;99.90;;;;;;4962497;28;20054;-77
2023/03/05 07:53:41;;;;;;;1.95;1.10;;;1.80;99.90;;;;;;4979080;28;20027;-77
2023/03/05 07:56:07;;;;;;;2.17;1.00;;;1.80;99.90;;;;;;4962660;28;20031;-79
2023/03/05 07:58:33;;;;;;;3.42;1.00;;;1.80;99.90;;;;;;4976409;28;20520;-77
2023/03/05 08:00:59;;;;;;;3.20;0.77;;;1.80;99.90;;;;;;4962161;28;20035;-79
2023/03/05 08:03:25;;;;;;;1.08;0.73;;;1.80;99.90;;;;;;4942067;28;20089;-77
2023/03/05 08:05:50;;;;;;;1.83;0.85;;;1.80;99.90;;;;;;4962070;28;20041;-78
2023/03/05 08:08:17;;;;;;;1.58;1.00;;;1.80;99.90;;;;;;4981588;28;20034;-78
2023/03/05 08:10:43;;;;;;;2.15;0.80;;;1.80;99.90;;;;;;4969862;28;20054;-79
2023/03/05 08:13:09;;;;;;;2.30;0.98;;;1.70;99.90;;;;;;4972654;28;20368;-79
2023/03/05 08:15:36;;;;;;;2.13;1.20;;;1.70;99.90;;;;;;4976385;28;20034;-79
2023/03/05 08:18:03;;;;;;;1.92;0.73;;;1.70;99.90;;;;;;4976070;28;20035;-79
2023/03/05 08:20:28;;;;;;;2.30;0.88;;;1.80;99.90;;;;;;4973639;28;20070;-79
2023/03/05 08:22:54;;;;;;;1.67;0.73;;;1.80;99.90;;;;;;4978925;28;20058;-79
2023/03/05 08:25:20;;;;;;;1.00;0.82;;;1.80;99.90;;;;;;4947311;28;20039;-79
2023/03/05 08:27:47;;;;;;;3.00;0.88;;;1.80;99.90;;;;;;4943388;28;20041;-80
2023/03/05 08:30:15;;;;;;;1.67;0.70;;;1.90;99.90;;;;;;4988306;28;20026;-79
2023/03/05 08:32:41;;;;;;;5.00;1.00;;;1.90;99.90;;;;;;4965242;28;20042;-79
2023/03/05 08:35:08;;;;;;;1.80;0.80;;;1.90;99.90;;;;;;4978505;28;20034;-78
2023/03/05 08:37:35;;;;;;;2.10;0.80;;;1.90;99.90;;;;;;4971051;28;20475;-79
2023/03/05 08:40:01;;;;;;;3.42;0.90;;;1.90;99.90;;;;;;4974286;28;20030;-77
2023/03/05 08:42:26;;;;;;;1.83;1.10;;;1.90;99.90;;;;;;4981939;28;20030;-78
2023/03/05 08:44:52;;;;;;;3.05;1.27;;;2.00;99.90;;;;;;4977673;28;20033;-78
2023/03/05 08:47:19;;;;;;;2.78;1.27;;;1.90;99.90;;;;;;4979290;28;20414;-78
2023/03/05 08:49:45;;;;;;;2.60;0.90;;;1.90;99.90;;;;;;4976164;28;20039;-77
2023/03/05 08:52:12;;;;;;;0.82;0.63;;;1.90;99.90;;;;;;4965480;28;20125;-78
2023/03/05 08:54:38;;;;;;;2.97;0.50;;;2.00;99.90;;;;;;4970978;28;20045;-79
2023/03/05 08:57:04;;;;;;;2.30;0.65;;;2.00;99.90;;;;;;4974401;28;20038;-78
2023/03/05 08:59:29;;;;;;;2.00;0.60;;;2.00;99.90;;;;;;4963001;28;20035;-78
2023/03/05 09:02:00;;;;;;;2.45;0.68;;;2.00;99.90;;;;;;4963554;28;20059;-77
2023/03/05 09:04:26;;;;;;;0.38;0.38;;;2.10;99.90;;;;;;4940376;28;20026;-78
2023/03/05 09:06:52;;;;;;;1.45;0.77;;;2.10;99.90;;;;;;4985567;28;20033;-80
2023/03/05 09:09:20;;;;;;;2.75;0.50;;;2.20;99.90;;;;;;4969320;28;20044;-79
2023/03/05 09:11:46;;;;;;;2.35;1.30;;;2.20;99.90;;;;;;4968484;28;20105;-79
2023/03/05 09:14:12;;;;;;;4.45;1.75;;;2.30;99.90;;;;;;4978810;28;20054;-78
2023/03/05 09:16:39;;;;;;;1.33;0.70;;;2.40;99.90;;;;;;4978510;28;20030;-77
2023/03/05 09:19:09;;;;;;;1.20;0.70;;;2.50;99.90;;;;;;4950128;28;20035;-79
2023/03/05 09:21:35;;;;;;;1.88;0.80;;;2.60;99.90;;;;;;4978871;28;20023;-78
2023/03/05 09:24:02;;;;;;;1.63;0.90;;;2.70;99.90;;;;;;4968169;28;20045;-79
2023/03/05 09:26:28;;;;;;;1.50;0.68;;;2.80;99.90;;;;;;4963077;28;20084;-79
2023/03/05 09:28:54;;;;;;;2.42;0.68;;;2.80;99.90;;;;;;4977500;28;20127;-78
2023/03/05 09:31:19;;;;;;;2.78;1.05;;;2.90;99.90;;;;;;4963840;28;20031;-79
2023/03/05 09:33:47;;;;;;;2.88;0.77;;;3.00;99.90;;;;;;4950947;28;20035;-80
2023/03/05 09:36:20;;;;;;;1.45;0.65;;;3.00;99.90;;;;;;4971490;28;20034;-80
2023/03/05 09:38:46;;;;;;;2.20;0.52;;;3.00;99.90;;;;;;4974964;28;20409;-79
2023/03/05 09:41:34;;;;;;;3.47;1.50;;;3.00;99.90;;;;;;4980280;28;20053;-79
2023/03/05 09:44:48;;;;;;;1.33;0.80;;;3.00;99.90;;;;;;4963210;28;20121;-79
2023/03/05 09:47:13;;;;;;;1.95;0.68;;;3.00;99.90;;;;;;4970275;28;20061;-80
2023/03/05 09:49:49;;;;;;;1.90;0.50;;;3.00;99.90;;;;;;4982303;28;20026;-80
2023/03/05 09:52:20;;;;;;;1.73;0.90;;;3.00;99.90;;;;;;4986516;28;20022;-79
2023/03/05 09:54:53;;;;;;;3.55;1.40;;;3.10;99.90;;;;;;4969941;28;20487;-80
2023/03/05 09:57:24;;;;;;;1.35;0.70;;;3.10;99.90;;;;;;4986134;28;20037;-79
2023/03/05 09:59:56;;;;;;;1.75;0.85;;;3.10;99.90;;;;;;4989345;28;20033;-80
2023/03/05 10:02:24;;;;;;;1.75;0.60;;;3.10;99.90;;;;;;4990120;28;20088;-79
2023/03/05 10:05:18;;;;;;;1.02;0.57;;;3.10;99.90;;;;;;4983647;28;20484;-80
2023/03/05 10:07:52;;;;;;;2.00;0.50;;;3.10;99.90;;;;;;4960607;28;20423;-80
2023/03/05 10:10:24;;;;;;;3.83;0.90;;;3.20;99.90;;;;;;4963945;28;20039;-79
2023/03/05 10:12:55;;;;;;;0.80;0.68;;;3.20;99.90;;;;;;4952911;28;20657;-80
2023/03/05 10:15:50;;;;;;;4.25;1.23;;;3.20;99.90;;;;;;4965530;28;20030;-77
2023/03/05 10:18:56;;;;;;;4.28;1.05;;;3.20;99.90;;;;;;4963083;28;20062;-79
2023/03/05 10:21:38;;;;;;;1.27;0.50;;;3.30;99.90;;;;;;4976863;28;20028;-80
2023/03/05 10:24:40;;;;;;;2.38;0.73;;;3.30;99.90;;;;;;4986395;28;20046;-79
2023/03/05 10:27:18;;;;;;;3.83;1.63;;;3.30;99.90;;;;;;4977479;28;20023;-80
2023/03/05 10:30:11;;;;;;;3.58;0.68;;;3.30;99.90;;;;;;4978678;28;20023;-79
2023/03/05 10:33:01;;;;;;;0.80;0.40;;;3.30;99.90;;;;;;4977096;28;20034;-80
2023/03/05 10:36:10;;;;;;;0.98;0.30;;;3.30;99.90;;;;;;4972491;28;20037;-80
2023/03/05 10:38:51;;;;;;;1.05;0.52;;;3.30;99.90;;;;;;4975276;28;20426;-81
2023/03/05 10:41:48;;;;;;;0.98;0.45;;;3.40;99.90;;;;;;4978861;28;20029;-80
2023/03/05 10:44:45;;;;;;;1.15;0.40;;;3.50;99.90;;;;;;4987187;28;20069;-77
2023/03/05 10:47:24;;;;;;;2.80;0.47;;;3.60;99.90;;;;;;4963593;28;20042;-79
2023/03/05 10:49:53;;;;;;;2.20;0.63;;;3.70;99.90;;;;;;4977225;28;20027;-79
2023/03/05 10:52:22;;;;;;;0.85;0.52;;;3.80;99.90;;;;;;4984423;28;20027;-77
2023/03/05 10:54:49;;;;;;;2.85;0.60;;;3.90;99.90;;;;;;4963374;28;20438;-76
2023/03/05 10:57:18;;;;;;;1.23;0.60;;;4.10;99.90;;;;;;4978815;28;20026;-76
2023/03/05 11:00:12;;;;;;;1.40;0.50;;;4.30;99.90;;;;;;4980613;28;20042;-77
2023/03/05 11:03:08;;;;;;;3.08;1.10;;;4.40;99.90;;;;;;4962662;28;20034;-80
2023/03/05 11:05:44;;;;;;;1.48;0.60;;;4.60;99.90;;;;;;4943653;28;20169;-78
2023/03/05 11:08:27;;;;;;;1.85;0.45;;;4.70;99.90;;;;;;4965614;28;20038;-77
2023/03/05 11:11:08;;;;;;;1.60;0.52;;;4.90;99.90;;;;;;4962311;28;20394;-78
2023/03/05 11:13:39;;;;;;;1.52;0.50;;;4.90;99.90;;;;;;4974832;28;20019;-80
2023/03/05 11:16:13;;;;;;;3.20;0.60;;;4.80;99.90;;;;;;4980112;28;20035;-77
2023/03/05 11:18:41;;;;;;;2.28;0.60;;;4.80;99.90;;;;;;4946428;28;20035;-78
2023/03/05 11:21:18;;;;;;;0.82;0.45;;;4.90;99.90;;;;;;4959777;28;20085;-77
2023/03/05 11:24:08;;;;;;;0.57;0.40;;;4.80;99.90;;;;;;4979646;28;20043;-79
2023/03/05 11:26:34;;;;;;;0.45;0.40;;;4.80;99.90;;;;;;4969904;28;20022;-77
2023/03/05 11:29:03;;;;;;;2.05;0.65;;;4.90;99.90;;;;;;4980800;28;20197;-79
2023/03/05 11:31:32;;;;;;;0.40;0.32;;;4.80;99.90;;;;;;4979325;28;20045;-79
2023/03/05 11:34:00;;;;;;;1.52;0.63;;;4.80;99.90;;;;;;4968141;28;20045;-78
2023/03/05 11:36:41;;;;;;;1.35;0.82;;;4.70;99.90;;;;;;4972581;28;20023;-77
2023/03/05 11:39:07;;;;;;;0.85;0.50;;;4.70;99.90;;;;;;4959564;28;20043;-78
2023/03/05 11:41:46;;;;;;;0.40;0.40;;;4.70;99.90;;;;;;4966941;28;20038;-78
2023/03/05 11:44:25;;;;;;;0.80;0.60;;;4.80;99.90;;;;;;4962491;28;20088;-77
2023/03/05 11:47:12;;;;;;;2.83;0.43;;;4.80;99.90;;;;;;4956694;28;20109;-77
2023/03/05 11:49:43;;;;;;;0.50;0.40;;;4.70;99.90;;;;;;4946091;28;20035;-79
2023/03/05 11:52:31;;;;;;;0.93;0.40;;;4.60;99.90;;;;;;4962001;28;20053;-80
2023/03/05 11:55:05;;;;;;;4.38;2.17;;;4.60;99.90;;;;;;4956870;28;20049;-77
2023/03/05 11:57:56;;;;;;;2.28;0.90;;;4.50;99.90;;;;;;4936269;28;20097;-76
2023/03/05 12:00:30;;;;;;;2.83;0.68;;;4.40;99.90;;;;;;4961401;28;20038;-76
2023/03/05 12:02:59;;;;;;;2.35;0.63;;;4.40;99.90;;;;;;4976172;28;20031;-76
2023/03/05 12:05:27;;;;;;;1.50;0.60;;;4.30;99.90;;;;;;4983300;28;20039;-77
2023/03/05 12:07:58;;;;;;;1.42;0.40;;;4.20;99.90;;;;;;4980517;28;20225;-77
2023/03/05 12:10:25;;;;;;;0.85;0.45;;;4.20;99.90;;;;;;4966759;28;20093;-74
2023/03/05 12:13:10;;;;;;;0.93;0.40;;;4.10;99.90;;;;;;4949967;28;20042;-77
2023/03/05 12:16:10;;;;;;;1.23;0.77;;;3.90;99.90;;;;;;4960562;28;20185;-77
2023/03/05 12:18:55;;;;;;;1.50;0.50;;;3.90;99.90;;;;;;4956303;28;20046;-78
2023/03/05 12:21:25;;;;;;;1.33;0.50;;;3.90;99.90;;;;;;4965451;28;20124;-78
2023/03/05 12:24:00;;;;;;;4.75;1.15;;;3.90;99.90;;;;;;4975648;28;20482;-76
2023/03/05 12:27:03;;;;;;;0.85;0.43;;;3.90;99.90;;;;;;4952588;28;20034;-79
2023/03/05 12:29:32;;;;;;;1.15;0.45;;;3.80;99.90;;;;;;4979294;28;20026;-78
2023/03/05 12:32:01;;;;;;;2.58;1.23;;;3.90;99.90;;;;;;4954002;28;20030;-77
2023/03/05 12:34:35;;;;;;;5.15;1.73;;;3.90;99.90;;;;;;4957178;28;20045;-77
2023/03/05 12:37:01;;;;;;;0.95;0.50;;;3.80;99.90;;;;;;4961242;28;20046;-77
2023/03/05 12:39:49;;;;;;;0.85;0.50;;;3.80;99.90;;;;;;4951436;28;20587;-77
2023/03/05 12:42:27;;;;;;;1.95;0.60;;;3.90;99.90;;;;;;4954273;28;20122;-76
2023/03/05 12:45:08;;;;;;;3.50;0.90;;;3.80;99.90;;;;;;4971468;28;20039;-79
2023/03/05 12:47:35;;;;;;;0.68;0.52;;;3.80;99.90;;;;;;4984387;28;20026;-77
2023/03/05 12:50:02;;;;;;;2.05;0.63;;;3.70;99.90;;;;;;4980649;28;20106;-78
2023/03/05 12:52:32;;;;;;;0.82;0.63;;;3.70;99.90;;;;;;4977202;28;20034;-75
2023/03/05 12:55:33;;;;;;;3.45;0.73;;;3.80;99.90;;;;;;4953877;28;20041;-78
2023/03/05 12:58:10;;;;;;;3.90;0.82;;;3.70;99.90;;;;;;4962425;28;20526;-78
2023/03/05 13:00:43;;;;;;;1.90;1.05;;;3.70;99.90;;;;;;4963649;28;20033;-76
2023/03/05 13:03:16;;;;;;;2.97;0.60;;;3.70;99.90;;;;;;4964028;28;20035;-79
2023/03/05 13:06:21;;;;;;;1.85;0.65;;;3.70;99.90;;;;;;4955402;28;20030;-78
2023/03/05 13:08:55;;;;;;;1.38;0.70;;;3.80;99.90;;;;;;4964082;28;20034;-78